createdAt,value
2019-03-23T00:00:00.913Z,56.21
2019-03-23T00:01:13.717Z,56.27
2019-03-23T00:02:19.466Z,56.34
2019-03-23T00:03:25.162Z,56.38
2019-03-23T00:04:31.007Z,56.42
2019-03-23T00:05:36.715Z,56.46
2019-03-23T00:06:42.315Z,56.51
2019-03-23T00:07:47.944Z,56.58
2019-03-23T00:08:53.506Z,56.60
2019-03-23T00:09:59.047Z,56.65
2019-03-23T00:11:04.826Z,56.71
2019-03-23T00:12:10.430Z,56.76
2019-03-23T00:13:16.060Z,56.83
2019-03-23T00:14:21.654Z,56.89
2019-03-23T00:15:27.358Z,56.94
2019-03-23T00:16:32.860Z,56.99
2019-03-23T00:17:38.513Z,57.03
2019-03-23T00:18:44.509Z,57.07
2019-03-23T00:19:50.076Z,57.12
2019-03-23T00:20:55.991Z,57.15
2019-03-23T00:22:01.819Z,57.21
2019-03-23T00:23:07.796Z,57.24
2019-03-23T00:24:13.598Z,57.29
2019-03-23T00:25:19.211Z,57.31
2019-03-23T00:26:25.096Z,57.36
2019-03-23T00:27:30.853Z,57.46
2019-03-23T00:28:36.755Z,57.50
2019-03-23T00:29:42.437Z,57.52
2019-03-23T00:30:47.970Z,57.54
2019-03-23T00:31:53.917Z,57.58
2019-03-23T00:32:59.526Z,57.63
2019-03-23T00:34:05.589Z,57.68
2019-03-23T00:35:11.561Z,57.71
2019-03-23T00:36:17.460Z,57.75
2019-03-23T00:37:23.755Z,57.76
2019-03-23T00:38:29.744Z,57.77
2019-03-23T00:39:35.723Z,57.82
2019-03-23T00:40:41.672Z,57.85
2019-03-23T00:41:47.536Z,57.89
2019-03-23T00:42:53.109Z,57.94
2019-03-23T00:44:00.178Z,57.98
2019-03-23T00:45:06.322Z,58.01
2019-03-23T00:46:12.316Z,58.05
2019-03-23T00:47:17.938Z,58.10
2019-03-23T00:48:23.794Z,58.18
2019-03-23T00:49:29.814Z,58.22
2019-03-23T00:50:35.451Z,58.26
2019-03-23T00:51:41.119Z,58.30
2019-03-23T00:52:46.711Z,58.32
2019-03-23T00:53:52.344Z,58.38
2019-03-23T00:54:57.836Z,58.44
2019-03-23T00:56:03.648Z,58.53
2019-03-23T00:57:09.255Z,58.58
2019-03-23T00:58:14.919Z,58.67
2019-03-23T00:59:20.644Z,58.73
2019-03-23T01:00:26.397Z,58.79
2019-03-23T01:01:31.989Z,58.88
2019-03-23T01:02:37.630Z,58.97
2019-03-23T01:03:43.493Z,59.06
2019-03-23T01:04:49.227Z,59.13
2019-03-23T01:05:54.987Z,59.17
2019-03-23T01:07:00.672Z,59.25
2019-03-23T01:08:06.249Z,59.29
2019-03-23T01:09:12.176Z,59.35
2019-03-23T01:10:17.880Z,59.41
2019-03-23T01:11:23.445Z,59.50
2019-03-23T01:12:29.127Z,59.62
2019-03-23T01:13:34.693Z,59.75
2019-03-23T01:14:40.654Z,59.90
2019-03-23T01:15:48.135Z,60.01
2019-03-23T01:17:00.004Z,60.13
2019-03-23T01:18:05.638Z,60.33
2019-03-23T01:19:11.344Z,60.51
2019-03-23T01:20:17.087Z,60.64
2019-03-23T01:21:23.072Z,60.86
2019-03-23T01:22:28.657Z,61.03
2019-03-23T01:23:34.283Z,61.22
2019-03-23T01:24:40.243Z,61.32
2019-03-23T01:25:46.144Z,61.49
2019-03-23T01:26:52.071Z,61.73
2019-03-23T01:27:57.775Z,61.91
2019-03-23T01:29:03.352Z,62.07
2019-03-23T01:30:10.124Z,62.25
2019-03-23T01:31:15.734Z,62.39
2019-03-23T01:32:21.308Z,62.53
2019-03-23T01:33:26.929Z,62.66
2019-03-23T01:34:33.007Z,62.83
2019-03-23T01:35:39.061Z,62.98
2019-03-23T01:36:44.689Z,63.08
2019-03-23T01:37:50.280Z,63.26
2019-03-23T01:38:56.594Z,63.42
2019-03-23T01:40:02.203Z,63.55
2019-03-23T01:41:08.233Z,63.68
2019-03-23T01:42:13.807Z,63.89
2019-03-23T01:43:19.511Z,64.14
2019-03-23T01:44:25.025Z,64.33
2019-03-23T01:45:30.553Z,64.49
2019-03-23T01:46:36.126Z,64.67
2019-03-23T01:47:41.838Z,64.84
2019-03-23T01:48:47.350Z,64.99
2019-03-23T01:49:53.503Z,65.24
2019-03-23T01:50:59.137Z,65.32
2019-03-23T01:52:04.835Z,65.69
2019-03-23T01:53:12.594Z,65.99
2019-03-23T01:54:18.523Z,66.26
2019-03-23T01:55:24.246Z,66.39
2019-03-23T01:56:29.738Z,66.57
2019-03-23T01:57:35.332Z,66.81
2019-03-23T01:58:40.856Z,67.15
2019-03-23T01:59:46.362Z,67.48
2019-03-23T02:00:52.040Z,68.01
2019-03-23T02:01:57.620Z,68.32
2019-03-23T02:03:03.139Z,68.57
2019-03-23T02:04:08.859Z,68.81
2019-03-23T02:05:14.577Z,69.00
2019-03-23T02:06:20.087Z,69.29
2019-03-23T02:07:25.677Z,69.44
2019-03-23T02:08:31.235Z,69.66
2019-03-23T02:09:36.855Z,69.81
2019-03-23T02:10:42.709Z,70.01
2019-03-23T02:11:48.607Z,70.08
2019-03-23T02:12:54.509Z,70.14
2019-03-23T02:14:00.441Z,70.23
2019-03-23T02:15:07.272Z,70.32
2019-03-23T02:16:12.794Z,70.41
2019-03-23T02:17:18.498Z,70.59
2019-03-23T02:18:24.447Z,70.67
2019-03-23T02:19:30.137Z,70.71
2019-03-23T02:20:35.838Z,70.73
2019-03-23T02:21:41.548Z,70.73
2019-03-23T02:22:47.399Z,70.73
2019-03-23T02:23:53.256Z,70.75
2019-03-23T02:24:58.847Z,70.76
2019-03-23T02:26:04.594Z,70.81
2019-03-23T02:27:10.394Z,70.92
2019-03-23T02:28:16.076Z,70.90
2019-03-23T02:29:21.654Z,70.97
2019-03-23T02:30:27.630Z,71.05
2019-03-23T02:31:33.226Z,71.04
2019-03-23T02:32:39.260Z,71.03
2019-03-23T02:33:44.830Z,71.04
2019-03-23T02:34:50.738Z,71.05
2019-03-23T02:35:56.338Z,71.05
2019-03-23T02:37:01.889Z,71.09
2019-03-23T02:38:07.477Z,71.08
2019-03-23T02:39:13.317Z,71.13
2019-03-23T02:40:18.903Z,71.13
2019-03-23T02:41:24.561Z,71.11
2019-03-23T02:42:30.172Z,71.12
2019-03-23T02:43:35.693Z,71.21
2019-03-23T02:44:41.729Z,71.27
2019-03-23T02:45:47.610Z,71.28
2019-03-23T02:46:53.298Z,71.39
2019-03-23T02:47:58.838Z,71.47
2019-03-23T02:49:04.391Z,71.96
2019-03-23T02:50:10.354Z,71.46
2019-03-23T02:51:16.235Z,71.48
2019-03-23T02:52:22.208Z,71.57
2019-03-23T02:53:27.739Z,71.65
2019-03-23T02:54:33.577Z,71.59
2019-03-23T02:55:39.507Z,71.58
2019-03-23T02:56:45.420Z,71.64
2019-03-23T02:57:50.902Z,71.72
2019-03-23T02:58:56.812Z,71.68
2019-03-23T03:00:05.731Z,71.66
2019-03-23T03:01:11.293Z,71.63
2019-03-23T03:02:17.381Z,71.66
2019-03-23T03:03:23.143Z,71.69
2019-03-23T03:04:28.816Z,71.82
2019-03-23T03:05:34.450Z,71.91
2019-03-23T03:06:40.411Z,72.02
2019-03-23T03:07:46.019Z,72.06
2019-03-23T03:08:51.955Z,72.12
2019-03-23T03:09:57.753Z,72.16
2019-03-23T03:11:03.820Z,72.15
2019-03-23T03:12:09.406Z,72.18
2019-03-23T03:13:15.131Z,72.19
2019-03-23T03:14:20.654Z,72.18
2019-03-23T03:15:26.267Z,72.17
2019-03-23T03:16:32.283Z,72.16
2019-03-23T03:17:37.970Z,72.08
2019-03-23T03:18:43.547Z,71.96
2019-03-23T03:19:49.575Z,72.02
2019-03-23T03:20:55.237Z,72.05
2019-03-23T03:22:00.919Z,72.07
2019-03-23T03:23:06.530Z,72.17
2019-03-23T03:24:12.128Z,72.03
2019-03-23T03:25:18.070Z,72.06
2019-03-23T03:26:24.081Z,72.07
2019-03-23T03:27:29.945Z,72.13
2019-03-23T03:28:35.876Z,72.13
2019-03-23T03:29:41.482Z,72.14
2019-03-23T03:30:47.350Z,72.10
2019-03-23T03:31:52.888Z,71.97
2019-03-23T03:33:01.372Z,71.97
2019-03-23T03:34:06.869Z,71.99
2019-03-23T03:35:12.539Z,72.03
2019-03-23T03:36:18.162Z,72.04
2019-03-23T03:37:23.817Z,72.03
2019-03-23T03:38:29.459Z,72.14
2019-03-23T03:39:35.426Z,72.23
2019-03-23T03:40:41.105Z,72.31
2019-03-23T03:41:46.939Z,72.36
2019-03-23T03:42:53.121Z,72.38
2019-03-23T03:43:58.680Z,72.42
2019-03-23T03:45:04.940Z,72.78
2019-03-23T03:46:11.277Z,72.45
2019-03-23T03:47:17.149Z,72.38
2019-03-23T03:48:23.021Z,72.38
2019-03-23T03:49:28.976Z,72.48
2019-03-23T03:50:34.565Z,72.44
2019-03-23T03:51:42.787Z,72.45
2019-03-23T03:52:48.714Z,72.36
2019-03-23T03:53:54.363Z,72.26
2019-03-23T03:54:59.853Z,72.18
2019-03-23T03:56:05.699Z,72.15
2019-03-23T03:57:11.227Z,72.15
2019-03-23T03:58:17.160Z,72.19
2019-03-23T03:59:23.002Z,72.25
2019-03-23T04:00:28.730Z,72.30
2019-03-23T04:01:34.765Z,72.30
2019-03-23T04:02:40.718Z,72.19
2019-03-23T04:03:46.302Z,72.20
2019-03-23T04:04:52.262Z,72.20
2019-03-23T04:05:58.223Z,72.19
2019-03-23T04:07:03.849Z,72.03
2019-03-23T04:08:11.675Z,72.03
2019-03-23T04:09:16.873Z,72.03
2019-03-23T04:10:22.477Z,72.05
2019-03-23T04:11:28.534Z,71.91
2019-03-23T04:12:34.188Z,71.92
2019-03-23T04:13:40.485Z,71.87
2019-03-23T04:14:46.090Z,71.92
2019-03-23T04:15:52.005Z,71.90
2019-03-23T04:16:57.560Z,71.89
2019-03-23T04:18:03.467Z,71.91
2019-03-23T04:19:09.479Z,71.95
2019-03-23T04:20:15.782Z,71.92
2019-03-23T04:21:21.774Z,71.94
2019-03-23T04:22:27.743Z,71.91
2019-03-23T04:23:33.700Z,71.93
2019-03-23T04:24:39.416Z,71.88
2019-03-23T04:25:45.066Z,71.80
2019-03-23T04:26:50.592Z,71.84
2019-03-23T04:27:56.265Z,71.84
2019-03-23T04:29:01.941Z,71.89
2019-03-23T04:30:08.083Z,71.92
2019-03-23T04:31:13.728Z,71.96
2019-03-23T04:32:19.374Z,71.83
2019-03-23T04:33:25.321Z,71.80
2019-03-23T04:34:31.194Z,71.76
2019-03-23T04:35:36.713Z,71.79
2019-03-23T04:36:42.373Z,71.81
2019-03-23T04:37:48.294Z,71.71
2019-03-23T04:38:53.970Z,71.67
2019-03-23T04:39:59.922Z,71.69
2019-03-23T04:41:05.487Z,71.69
2019-03-23T04:42:10.998Z,71.66
2019-03-23T04:43:18.295Z,71.61
2019-03-23T04:44:24.042Z,71.55
2019-03-23T04:45:29.770Z,71.53
2019-03-23T04:46:35.443Z,71.61
2019-03-23T04:47:40.985Z,71.61
2019-03-23T04:48:47.101Z,71.58
2019-03-23T04:49:52.852Z,71.54
2019-03-23T04:50:58.732Z,71.49
2019-03-23T04:52:04.357Z,71.42
2019-03-23T04:53:10.275Z,71.37
2019-03-23T04:54:15.965Z,71.36
2019-03-23T04:55:21.503Z,71.40
2019-03-23T04:56:27.061Z,71.40
2019-03-23T04:57:33.044Z,71.43
2019-03-23T04:58:38.653Z,71.45
2019-03-23T04:59:44.818Z,71.45
2019-03-23T05:00:50.523Z,71.38
2019-03-23T05:01:56.287Z,71.36
2019-03-23T05:03:01.864Z,71.30
2019-03-23T05:04:08.032Z,71.18
2019-03-23T05:05:13.707Z,71.05
2019-03-23T05:06:19.349Z,70.96
2019-03-23T05:07:24.950Z,70.84
2019-03-23T05:08:33.544Z,70.84
2019-03-23T05:09:38.240Z,70.84
2019-03-23T05:10:43.787Z,70.81
2019-03-23T05:11:49.459Z,70.73
2019-03-23T05:12:55.326Z,70.66
2019-03-23T05:14:01.375Z,70.54
2019-03-23T05:15:07.713Z,70.48
2019-03-23T05:16:13.453Z,70.42
2019-03-23T05:17:19.038Z,70.40
2019-03-23T05:18:24.663Z,70.43
2019-03-23T05:19:30.254Z,70.47
2019-03-23T05:20:35.839Z,70.46
2019-03-23T05:21:41.492Z,70.49
2019-03-23T05:22:47.047Z,70.50
2019-03-23T05:23:53.046Z,70.46
2019-03-23T05:24:58.855Z,70.38
2019-03-23T05:26:04.554Z,70.31
2019-03-23T05:27:10.067Z,70.24
2019-03-23T05:28:16.081Z,70.21
2019-03-23T05:29:21.863Z,70.14
2019-03-23T05:30:27.517Z,70.11
2019-03-23T05:31:33.255Z,70.13
2019-03-23T05:32:38.917Z,70.11
2019-03-23T05:33:44.519Z,70.08
2019-03-23T05:34:50.116Z,70.06
2019-03-23T05:35:55.751Z,70.05
2019-03-23T05:37:01.710Z,70.04
2019-03-23T05:38:07.631Z,69.95
2019-03-23T05:39:13.369Z,69.81
2019-03-23T05:40:19.028Z,69.73
2019-03-23T05:41:24.961Z,69.75
2019-03-23T05:42:31.024Z,69.67
2019-03-23T05:43:36.779Z,69.61
2019-03-23T05:44:42.508Z,69.57
2019-03-23T05:45:48.461Z,69.54
2019-03-23T05:46:54.408Z,69.53
2019-03-23T05:48:00.165Z,69.48
2019-03-23T05:49:05.904Z,69.46
2019-03-23T05:50:11.790Z,69.46
2019-03-23T05:51:17.299Z,69.38
2019-03-23T05:52:23.042Z,69.26
2019-03-23T05:53:28.684Z,69.19
2019-03-23T05:54:35.239Z,69.09
2019-03-23T05:55:40.808Z,68.96
2019-03-23T05:56:46.586Z,68.89
2019-03-23T05:57:52.172Z,68.80
2019-03-23T05:58:57.839Z,68.71
2019-03-23T06:00:03.441Z,68.71
2019-03-23T06:01:09.896Z,68.70
2019-03-23T06:02:15.515Z,68.69
2019-03-23T06:03:21.457Z,68.63
2019-03-23T06:04:27.512Z,68.55
2019-03-23T06:05:33.150Z,68.48
2019-03-23T06:06:38.701Z,68.37
2019-03-23T06:07:44.632Z,68.34
2019-03-23T06:08:54.824Z,68.35
2019-03-23T06:09:57.545Z,68.31
2019-03-23T06:11:03.106Z,68.28
2019-03-23T06:12:08.790Z,68.22
2019-03-23T06:13:14.400Z,68.21
2019-03-23T06:14:20.134Z,68.17
2019-03-23T06:15:25.842Z,68.14
2019-03-23T06:16:31.430Z,68.06
2019-03-23T06:17:37.527Z,68.07
2019-03-23T06:18:43.182Z,68.10
2019-03-23T06:19:49.172Z,68.07
2019-03-23T06:20:54.863Z,68.05
2019-03-23T06:22:00.489Z,68.03
2019-03-23T06:23:06.454Z,68.03
2019-03-23T06:24:12.692Z,68.04
2019-03-23T06:25:18.290Z,68.01
2019-03-23T06:26:23.913Z,67.90
2019-03-23T06:27:29.610Z,67.82
2019-03-23T06:28:35.269Z,67.78
2019-03-23T06:29:41.236Z,67.72
2019-03-23T06:30:46.865Z,67.62
2019-03-23T06:31:52.598Z,67.54
2019-03-23T06:32:59.463Z,67.49
2019-03-23T06:34:05.248Z,67.37
2019-03-23T06:35:11.157Z,67.27
2019-03-23T06:36:16.842Z,67.25
2019-03-23T06:37:22.798Z,67.24
2019-03-23T06:38:28.488Z,67.30
2019-03-23T06:39:34.157Z,67.32
2019-03-23T06:40:39.872Z,67.32
2019-03-23T06:41:45.477Z,67.29
2019-03-23T06:42:59.443Z,67.20
2019-03-23T06:43:58.422Z,67.10
2019-03-23T06:45:04.717Z,67.01
2019-03-23T06:46:10.237Z,66.97
2019-03-23T06:47:15.769Z,66.88
2019-03-23T06:48:21.587Z,66.75
2019-03-23T06:49:27.837Z,66.62
2019-03-23T06:50:33.451Z,66.53
2019-03-23T06:51:39.336Z,66.48
2019-03-23T06:52:44.813Z,66.41
2019-03-23T06:53:50.448Z,66.26
2019-03-23T06:54:56.082Z,66.23
2019-03-23T06:56:01.597Z,66.17
2019-03-23T06:57:07.204Z,66.11
2019-03-23T06:58:12.874Z,66.14
2019-03-23T06:59:18.526Z,66.13
2019-03-23T07:00:24.619Z,66.13
2019-03-23T07:01:30.191Z,66.07
2019-03-23T07:02:36.099Z,66.01
2019-03-23T07:03:41.708Z,65.99
2019-03-23T07:04:47.435Z,65.95
2019-03-23T07:05:54.099Z,65.87
2019-03-23T07:06:59.748Z,65.88
2019-03-23T07:08:05.838Z,65.81
2019-03-23T07:09:16.022Z,65.82
2019-03-23T07:10:18.880Z,65.75
2019-03-23T07:11:24.772Z,65.74
2019-03-23T07:12:30.422Z,65.70
2019-03-23T07:13:36.252Z,65.73
2019-03-23T07:14:42.373Z,65.71
2019-03-23T07:15:48.063Z,65.66
2019-03-23T07:16:54.092Z,65.49
2019-03-23T07:17:59.738Z,65.43
2019-03-23T07:19:05.383Z,65.32
2019-03-23T07:20:11.848Z,65.20
2019-03-23T07:21:17.493Z,65.08
2019-03-23T07:22:23.131Z,64.99
2019-03-23T07:23:28.698Z,64.94
2019-03-23T07:24:34.753Z,64.90
2019-03-23T07:25:40.316Z,64.86
2019-03-23T07:26:45.993Z,64.70
2019-03-23T07:27:51.997Z,64.66
2019-03-23T07:28:57.587Z,64.56
2019-03-23T07:30:03.812Z,64.45
2019-03-23T07:31:09.615Z,64.31
2019-03-23T07:32:15.284Z,64.22
2019-03-23T07:33:21.268Z,64.17
2019-03-23T07:34:26.850Z,64.16
2019-03-23T07:35:32.515Z,64.11
2019-03-23T07:36:38.082Z,64.02
2019-03-23T07:37:43.722Z,63.92
2019-03-23T07:38:49.738Z,63.85
2019-03-23T07:39:55.402Z,63.74
2019-03-23T07:41:01.165Z,63.64
2019-03-23T07:42:07.041Z,63.59
2019-03-23T07:43:12.739Z,63.55
2019-03-23T07:44:18.410Z,63.47
2019-03-23T07:45:24.031Z,63.38
2019-03-23T07:46:29.711Z,63.32
2019-03-23T07:47:35.373Z,63.25
2019-03-23T07:48:41.257Z,63.19
2019-03-23T07:49:46.819Z,63.14
2019-03-23T07:50:52.847Z,63.13
2019-03-23T07:51:58.531Z,63.09
2019-03-23T07:53:04.207Z,63.04
2019-03-23T07:54:09.747Z,62.92
2019-03-23T07:55:15.736Z,62.82
2019-03-23T07:56:21.355Z,62.82
2019-03-23T07:57:26.980Z,62.84
2019-03-23T07:58:32.861Z,62.81
2019-03-23T07:59:38.801Z,62.76
2019-03-23T08:00:44.682Z,62.77
2019-03-23T08:01:50.260Z,62.81
2019-03-23T08:02:55.891Z,62.82
2019-03-23T08:04:01.515Z,62.77
2019-03-23T08:05:07.924Z,62.70
2019-03-23T08:06:13.553Z,62.56
2019-03-23T08:07:19.467Z,62.49
2019-03-23T08:08:25.196Z,62.46
2019-03-23T08:09:37.655Z,62.39
2019-03-23T08:10:38.086Z,62.31
2019-03-23T08:11:43.980Z,62.24
2019-03-23T08:12:49.943Z,62.19
2019-03-23T08:13:55.954Z,62.10
2019-03-23T08:15:01.661Z,62.06
2019-03-23T08:16:07.645Z,61.98
2019-03-23T08:17:13.349Z,61.96
2019-03-23T08:18:19.362Z,61.96
2019-03-23T08:19:25.488Z,62.01
2019-03-23T08:20:31.350Z,61.94
2019-03-23T08:21:37.025Z,61.90
2019-03-23T08:22:42.600Z,61.88
2019-03-23T08:23:48.243Z,61.85
2019-03-23T08:24:54.270Z,61.86
2019-03-23T08:26:00.235Z,61.86
2019-03-23T08:27:05.850Z,61.82
2019-03-23T08:28:11.822Z,61.75
2019-03-23T08:29:17.415Z,61.73
2019-03-23T08:30:23.119Z,61.65
2019-03-23T08:31:28.748Z,61.54
2019-03-23T08:32:34.423Z,61.40
2019-03-23T08:33:39.977Z,61.33
2019-03-23T08:34:45.923Z,61.32
2019-03-23T08:35:51.500Z,61.29
2019-03-23T08:36:57.328Z,61.25
2019-03-23T08:38:03.102Z,61.25
2019-03-23T08:39:09.045Z,61.28
2019-03-23T08:40:14.824Z,61.23
2019-03-23T08:41:20.744Z,61.14
2019-03-23T08:42:26.464Z,61.08
2019-03-23T08:43:32.117Z,61.03
2019-03-23T08:44:38.654Z,60.93
2019-03-23T08:45:44.243Z,60.84
2019-03-23T08:46:49.963Z,60.84
2019-03-23T08:47:55.516Z,60.77
2019-03-23T08:49:01.935Z,60.77
2019-03-23T08:50:08.001Z,60.86
2019-03-23T08:51:13.928Z,60.87
2019-03-23T08:52:19.602Z,60.87
2019-03-23T08:53:25.363Z,60.88
2019-03-23T08:54:31.369Z,60.87
2019-03-23T08:55:36.971Z,60.89
2019-03-23T08:56:42.538Z,60.92
2019-03-23T08:57:48.383Z,60.85
2019-03-23T08:58:53.971Z,60.71
2019-03-23T08:59:59.630Z,60.63
2019-03-23T09:01:05.356Z,60.59
2019-03-23T09:02:11.339Z,60.52
2019-03-23T09:03:17.296Z,60.47
2019-03-23T09:04:22.960Z,60.31
2019-03-23T09:05:28.846Z,60.27
2019-03-23T09:06:34.439Z,60.18
2019-03-23T09:07:40.140Z,60.17
2019-03-23T09:08:46.319Z,60.22
2019-03-23T09:09:59.163Z,60.22
2019-03-23T09:10:59.973Z,60.24
2019-03-23T09:12:05.628Z,60.22
2019-03-23T09:13:13.667Z,60.16
2019-03-23T09:14:19.578Z,60.09
2019-03-23T09:15:25.600Z,60.11
2019-03-23T09:16:31.281Z,60.14
2019-03-23T09:17:36.940Z,60.17
2019-03-23T09:18:42.694Z,60.12
2019-03-23T09:19:48.673Z,60.12
2019-03-23T09:20:54.836Z,60.10
2019-03-23T09:22:00.666Z,60.00
2019-03-23T09:23:06.349Z,59.98
2019-03-23T09:24:11.925Z,59.91
2019-03-23T09:25:17.821Z,59.93
2019-03-23T09:26:23.777Z,59.97
2019-03-23T09:27:29.500Z,60.00
2019-03-23T09:28:35.257Z,59.97
2019-03-23T09:29:41.268Z,59.94
2019-03-23T09:30:47.091Z,59.92
2019-03-23T09:31:53.071Z,59.99
2019-03-23T09:32:58.777Z,60.00
2019-03-23T09:34:04.532Z,59.99
2019-03-23T09:35:11.072Z,60.03
2019-03-23T09:36:16.790Z,60.04
2019-03-23T09:37:22.469Z,60.00
2019-03-23T09:38:28.667Z,59.98
2019-03-23T09:39:34.488Z,60.00
2019-03-23T09:40:40.387Z,60.05
2019-03-23T09:41:46.311Z,60.02
2019-03-23T09:42:52.557Z,60.10
2019-03-23T09:43:58.261Z,60.14
2019-03-23T09:45:04.424Z,60.11
2019-03-23T09:46:10.139Z,60.12
2019-03-23T09:47:16.333Z,60.11
2019-03-23T09:48:22.276Z,60.09
2019-03-23T09:49:28.308Z,60.12
2019-03-23T09:50:35.039Z,60.14
2019-03-23T09:51:41.523Z,60.10
2019-03-23T09:52:48.151Z,60.12
2019-03-23T09:53:54.338Z,60.17
2019-03-23T09:55:00.057Z,60.21
2019-03-23T09:56:05.978Z,60.25
2019-03-23T09:57:11.727Z,60.22
2019-03-23T09:58:17.551Z,60.19
2019-03-23T09:59:23.287Z,60.18
2019-03-23T10:00:30.046Z,60.17
2019-03-23T10:01:35.691Z,60.13
2019-03-23T10:02:41.473Z,60.13
2019-03-23T10:03:47.272Z,60.15
2019-03-23T10:04:53.273Z,60.15
2019-03-23T10:05:59.194Z,60.14
2019-03-23T10:07:04.926Z,60.12
2019-03-23T10:08:10.742Z,60.07
2019-03-23T10:09:16.595Z,59.96
2019-03-23T10:10:22.625Z,59.88
2019-03-23T10:11:29.026Z,59.83
2019-03-23T10:12:34.852Z,59.79
2019-03-23T10:13:40.533Z,59.84
2019-03-23T10:14:46.407Z,59.97
2019-03-23T10:15:52.458Z,60.07
2019-03-23T10:16:58.519Z,60.05
2019-03-23T10:18:04.696Z,59.99
2019-03-23T10:19:10.808Z,59.93
2019-03-23T10:20:19.550Z,59.84
2019-03-23T10:21:34.020Z,59.70
2019-03-23T10:22:40.214Z,59.48
2019-03-23T10:23:46.034Z,59.22
2019-03-23T10:24:51.884Z,58.98
2019-03-23T10:25:57.627Z,58.72
2019-03-23T10:27:03.285Z,58.43
2019-03-23T10:28:08.990Z,58.21
2019-03-23T10:29:14.946Z,57.98
2019-03-23T10:30:20.868Z,57.78
2019-03-23T10:31:26.496Z,57.53
2019-03-23T10:32:32.440Z,57.28
2019-03-23T10:33:38.224Z,57.01
2019-03-23T10:34:44.262Z,56.78
2019-03-23T10:35:49.777Z,56.56
2019-03-23T10:36:55.792Z,56.31
2019-03-23T10:38:01.448Z,56.14
2019-03-23T10:39:07.679Z,55.95
2019-03-23T10:40:13.642Z,55.79
2019-03-23T10:41:19.363Z,55.63
2019-03-23T10:42:24.821Z,55.54
2019-03-23T10:43:30.443Z,55.37
2019-03-23T10:44:36.115Z,55.24
2019-03-23T10:45:44.469Z,55.17
2019-03-23T10:46:48.999Z,55.05
2019-03-23T10:49:00.171Z,55.02
2019-03-23T10:50:06.260Z,54.94
2019-03-23T10:51:11.828Z,54.82
2019-03-23T10:52:17.426Z,54.77
2019-03-23T10:53:23.475Z,54.75
2019-03-23T10:54:29.000Z,54.72
2019-03-23T10:55:34.923Z,54.66
2019-03-23T10:56:40.586Z,54.67
2019-03-23T10:57:46.187Z,54.74
2019-03-23T10:58:52.144Z,54.75
2019-03-23T10:59:58.047Z,54.66
2019-03-23T11:01:03.637Z,54.66
2019-03-23T11:02:09.243Z,54.73
2019-03-23T11:03:14.955Z,54.74
2019-03-23T11:04:21.322Z,54.71
2019-03-23T11:05:27.231Z,54.64
2019-03-23T11:06:32.844Z,54.60
2019-03-23T11:07:38.448Z,54.51
2019-03-23T11:08:44.025Z,54.42
2019-03-23T11:09:49.691Z,54.24
2019-03-23T11:10:55.306Z,54.15
2019-03-23T11:12:00.979Z,54.04
2019-03-23T11:13:06.574Z,53.89
2019-03-23T11:14:12.201Z,53.77
2019-03-23T11:15:17.776Z,53.72
2019-03-23T11:16:23.612Z,53.64
2019-03-23T11:17:29.262Z,53.56
2019-03-23T11:18:34.861Z,53.46
2019-03-23T11:19:41.204Z,53.38
2019-03-23T11:20:46.770Z,53.34
2019-03-23T11:21:52.318Z,53.36
2019-03-23T11:22:57.941Z,53.30
2019-03-23T11:24:03.883Z,53.39
2019-03-23T11:25:10.393Z,53.36
2019-03-23T11:26:15.975Z,53.25
2019-03-23T11:27:21.579Z,53.29
2019-03-23T11:28:27.066Z,53.31
2019-03-23T11:29:32.712Z,53.32
2019-03-23T11:30:38.756Z,53.27
2019-03-23T11:31:45.190Z,53.19
2019-03-23T11:32:50.714Z,53.22
2019-03-23T11:33:56.288Z,53.33
2019-03-23T11:35:02.132Z,53.40
2019-03-23T11:36:07.812Z,53.46
2019-03-23T11:37:13.445Z,53.43
2019-03-23T11:38:19.401Z,53.42
2019-03-23T11:39:25.006Z,53.34
2019-03-23T11:40:30.623Z,53.28
2019-03-23T11:41:36.525Z,53.23
2019-03-23T11:42:49.826Z,53.18
2019-03-23T11:43:49.375Z,53.12
2019-03-23T11:44:55.142Z,53.03
2019-03-23T11:46:01.289Z,52.89
2019-03-23T11:47:07.518Z,52.85
2019-03-23T11:48:13.150Z,52.81
2019-03-23T11:49:18.786Z,52.71
2019-03-23T11:50:24.441Z,52.68
2019-03-23T11:51:30.033Z,52.63
2019-03-23T11:52:35.630Z,52.54
2019-03-23T11:53:41.276Z,52.43
2019-03-23T11:54:46.979Z,52.46
2019-03-23T11:55:52.926Z,52.60
2019-03-23T11:56:58.539Z,52.64
2019-03-23T11:58:04.441Z,52.62
2019-03-23T11:59:10.371Z,52.48
2019-03-23T12:00:16.769Z,52.35
2019-03-23T12:01:22.750Z,52.40
2019-03-23T12:02:28.728Z,52.38
2019-03-23T12:03:34.480Z,52.35
2019-03-23T12:04:40.079Z,52.31
2019-03-23T12:05:45.704Z,52.30
2019-03-23T12:06:51.419Z,52.34
2019-03-23T12:07:57.335Z,52.40
2019-03-23T12:09:04.329Z,52.48
2019-03-23T12:10:10.518Z,52.53
2019-03-23T12:11:16.056Z,52.56
2019-03-23T12:12:23.359Z,52.61
2019-03-23T12:13:29.266Z,52.62
2019-03-23T12:14:34.896Z,52.64
2019-03-23T12:15:40.561Z,52.69
2019-03-23T12:16:46.104Z,52.79
2019-03-23T12:17:51.814Z,52.87
2019-03-23T12:18:57.517Z,52.92
2019-03-23T12:20:03.102Z,52.96
2019-03-23T12:21:08.710Z,52.99
2019-03-23T12:22:14.400Z,53.00
2019-03-23T12:23:20.069Z,53.01
2019-03-23T12:24:25.762Z,53.02
2019-03-23T12:25:31.462Z,52.97
2019-03-23T12:26:36.964Z,52.91
2019-03-23T12:27:42.665Z,52.87
2019-03-23T12:28:48.257Z,52.77
2019-03-23T12:29:53.845Z,52.69
2019-03-23T12:30:59.481Z,52.64
2019-03-23T12:32:05.139Z,52.56
2019-03-23T12:33:10.634Z,52.58
2019-03-23T12:34:16.279Z,52.52
2019-03-23T12:35:21.942Z,52.53
2019-03-23T12:36:27.446Z,52.52
2019-03-23T12:37:33.155Z,52.53
2019-03-23T12:38:38.807Z,52.50
2019-03-23T12:39:44.842Z,52.58
2019-03-23T12:40:50.418Z,52.68
2019-03-23T12:41:56.086Z,52.75
2019-03-23T12:43:01.765Z,52.77
2019-03-23T12:44:07.338Z,52.86
2019-03-23T12:45:13.294Z,52.91
2019-03-23T12:46:18.955Z,53.03
2019-03-23T12:47:24.584Z,53.19
2019-03-23T12:48:30.305Z,53.32
2019-03-23T12:49:35.975Z,53.46
2019-03-23T12:50:42.128Z,53.55
2019-03-23T12:51:47.719Z,53.64
2019-03-23T12:52:53.306Z,53.73
2019-03-23T12:53:58.960Z,53.79
2019-03-23T12:55:04.792Z,53.83
2019-03-23T12:56:10.414Z,53.88
2019-03-23T12:57:16.124Z,53.92
2019-03-23T12:58:22.941Z,53.93
2019-03-23T12:59:28.505Z,53.99
2019-03-23T13:00:34.196Z,54.08
2019-03-23T13:01:40.263Z,54.14
2019-03-23T13:02:45.944Z,54.23
2019-03-23T13:03:51.454Z,54.27
2019-03-23T13:04:57.332Z,54.28
2019-03-23T13:06:03.551Z,54.36
2019-03-23T13:07:09.228Z,54.41
2019-03-23T13:08:15.370Z,54.44
2019-03-23T13:09:21.350Z,54.46
2019-03-23T13:10:26.876Z,54.45
2019-03-23T13:11:35.464Z,54.43
2019-03-23T13:12:40.324Z,54.42
2019-03-23T13:13:45.944Z,54.43
2019-03-23T13:14:51.964Z,54.39
2019-03-23T13:15:57.537Z,54.35
2019-03-23T13:17:03.162Z,54.35
2019-03-23T13:18:09.186Z,54.32
2019-03-23T13:19:14.828Z,54.32
2019-03-23T13:20:20.910Z,54.33
2019-03-23T13:21:26.765Z,54.31
2019-03-23T13:22:32.395Z,54.33
2019-03-23T13:23:37.901Z,54.24
2019-03-23T13:24:44.175Z,54.24
2019-03-23T13:25:49.779Z,54.23
2019-03-23T13:26:55.512Z,54.24
2019-03-23T13:28:01.179Z,54.22
2019-03-23T13:29:06.801Z,54.17
2019-03-23T13:30:13.142Z,54.14
2019-03-23T13:31:19.030Z,54.10
2019-03-23T13:32:24.920Z,54.06
2019-03-23T13:33:30.436Z,54.09
2019-03-23T13:34:36.168Z,54.04
2019-03-23T13:35:41.666Z,54.04
2019-03-23T13:36:47.231Z,53.94
2019-03-23T13:37:54.602Z,53.91
2019-03-23T13:39:00.337Z,53.90
2019-03-23T13:40:07.071Z,53.84
2019-03-23T13:41:12.809Z,53.86
2019-03-23T13:42:18.427Z,53.86
2019-03-23T13:43:24.088Z,53.89
2019-03-23T13:44:29.727Z,53.96
2019-03-23T13:45:42.379Z,53.99
2019-03-23T13:46:42.584Z,54.04
2019-03-23T13:47:48.248Z,53.99
2019-03-23T13:48:53.996Z,53.98
2019-03-23T13:49:59.503Z,53.91
2019-03-23T13:51:05.149Z,53.78
2019-03-23T13:52:10.762Z,53.75
2019-03-23T13:53:16.646Z,53.70
2019-03-23T13:54:22.567Z,53.65
2019-03-23T13:55:29.875Z,53.63
2019-03-23T13:56:35.782Z,53.67
2019-03-23T13:57:41.855Z,53.70
2019-03-23T13:58:47.880Z,53.69
2019-03-23T13:59:53.412Z,53.71
2019-03-23T14:00:59.406Z,53.74
2019-03-23T14:02:05.120Z,53.80
2019-03-23T14:03:11.144Z,53.79
2019-03-23T14:04:16.791Z,53.90
2019-03-23T14:05:22.519Z,54.01
2019-03-23T14:06:28.224Z,54.09
2019-03-23T14:07:33.953Z,54.17
2019-03-23T14:08:39.583Z,54.21